sensor_id;sensor_type;location;lat;lon;timestamp;temperature;humidity
16955;DHT22;8594;52.052;8.354;2023-09-18T00:00:24;24.20;99.90
16955;DHT22;8594;52.052;8.354;2023-09-18T00:02:51;24.10;99.90
16955;DHT22;8594;52.052;8.354;2023-09-18T00:05:18;24.30;99.90
16955;DHT22;8594;52.052;8.354;2023-09-18T00:07:45;24.10;99.90
16955;DHT22;8594;52.052;8.354;2023-09-18T00:10:12;24.10;99.90
16955;DHT22;8594;52.052;8.354;2023-09-18T00:12:40;24.20;99.90
16955;DHT22;8594;52.052;8.354;2023-09-18T00:15:09;24.10;99.90
16955;DHT22;8594;52.052;8.354;2023-09-18T00:17:36;24.10;99.90
16955;DHT22;8594;52.052;8.354;2023-09-18T00:20:04;24.10;99.90
16955;DHT22;8594;52.052;8.354;2023-09-18T00:22:32;24.00;99.90
16955;DHT22;8594;52.052;8.354;2023-09-18T00:24:59;24.10;99.90
16955;DHT22;8594;52.052;8.354;2023-09-18T00:27:27;24.10;99.90
16955;DHT22;8594;52.052;8.354;2023-09-18T00:29:53;24.10;99.90
16955;DHT22;8594;52.052;8.354;2023-09-18T00:32:22;24.00;99.90
16955;DHT22;8594;52.052;8.354;2023-09-18T00:34:48;24.00;99.90
16955;DHT22;8594;52.052;8.354;2023-09-18T00:37:15;24.10;99.90
16955;DHT22;8594;52.052;8.354;2023-09-18T00:39:43;24.10;99.90
16955;DHT22;8594;52.052;8.354;2023-09-18T00:42:10;24.10;99.90
16955;DHT22;8594;52.052;8.354;2023-09-18T00:44:39;24.20;99.90
16955;DHT22;8594;52.052;8.354;2023-09-18T00:47:07;23.90;99.90
16955;DHT22;8594;52.052;8.354;2023-09-18T00:49:36;24.10;99.90
16955;DHT22;8594;52.052;8.354;2023-09-18T00:52:06;24.10;99.90
16955;DHT22;8594;52.052;8.354;2023-09-18T00:54:34;24.00;99.90
16955;DHT22;8594;52.052;8.354;2023-09-18T00:57:04;23.90;99.90
16955;DHT22;8594;52.052;8.354;2023-09-18T00:59:31;24.00;99.90
16955;DHT22;8594;52.052;8.354;2023-09-18T01:01:59;24.00;99.90
16955;DHT22;8594;52.052;8.354;2023-09-18T01:04:26;24.10;99.90
16955;DHT22;8594;52.052;8.354;2023-09-18T01:06:59;24.10;99.90
16955;DHT22;8594;52.052;8.354;2023-09-18T01:09:29;24.10;99.90
16955;DHT22;8594;52.052;8.354;2023-09-18T01:12:02;24.10;99.90
16955;DHT22;8594;52.052;8.354;2023-09-18T01:14:39;24.10;99.90
16955;DHT22;8594;52.052;8.354;2023-09-18T01:17:23;24.10;99.90
16955;DHT22;8594;52.052;8.354;2023-09-18T01:19:50;24.20;99.90
16955;DHT22;8594;52.052;8.354;2023-09-18T01:22:19;24.20;99.90
16955;DHT22;8594;52.052;8.354;2023-09-18T01:24:48;24.20;99.90
16955;DHT22;8594;52.052;8.354;2023-09-18T01:27:17;24.20;99.90
16955;DHT22;8594;52.052;8.354;2023-09-18T01:29:44;24.20;99.90
16955;DHT22;8594;52.052;8.354;2023-09-18T01:32:11;24.30;99.90
16955;DHT22;8594;52.052;8.354;2023-09-18T01:34:41;24.10;99.90
16955;DHT22;8594;52.052;8.354;2023-09-18T01:37:13;24.00;99.90
16955;DHT22;8594;52.052;8.354;2023-09-18T01:39:42;24.10;99.90
16955;DHT22;8594;52.052;8.354;2023-09-18T01:42:13;24.20;99.90
16955;DHT22;8594;52.052;8.354;2023-09-18T01:44:41;24.30;99.90
16955;DHT22;8594;52.052;8.354;2023-09-18T01:47:10;24.30;99.90
16955;DHT22;8594;52.052;8.354;2023-09-18T01:49:40;24.40;99.90
16955;DHT22;8594;52.052;8.354;2023-09-18T01:52:08;24.50;99.90
16955;DHT22;8594;52.052;8.354;2023-09-18T01:54:36;24.50;99.90
16955;DHT22;8594;52.052;8.354;2023-09-18T01:57:04;24.40;99.90
16955;DHT22;8594;52.052;8.354;2023-09-18T01:59:34;24.60;99.90
16955;DHT22;8594;52.052;8.354;2023-09-18T02:02:02;24.40;99.90
16955;DHT22;8594;52.052;8.354;2023-09-18T02:04:29;24.50;99.90
16955;DHT22;8594;52.052;8.354;2023-09-18T02:06:56;24.60;99.90
16955;DHT22;8594;52.052;8.354;2023-09-18T02:09:24;24.70;99.90
16955;DHT22;8594;52.052;8.354;2023-09-18T02:11:50;24.60;99.90
16955;DHT22;8594;52.052;8.354;2023-09-18T02:14:17;24.60;99.90
16955;DHT22;8594;52.052;8.354;2023-09-18T02:16:45;24.70;99.90
16955;DHT22;8594;52.052;8.354;2023-09-18T02:19:13;24.70;99.90
16955;DHT22;8594;52.052;8.354;2023-09-18T02:21:40;24.70;99.90
16955;DHT22;8594;52.052;8.354;2023-09-18T02:24:07;24.50;99.90
16955;DHT22;8594;52.052;8.354;2023-09-18T02:26:35;24.60;99.90
16955;DHT22;8594;52.052;8.354;2023-09-18T02:29:05;24.70;99.90
16955;DHT22;8594;52.052;8.354;2023-09-18T02:31:33;24.60;99.90
16955;DHT22;8594;52.052;8.354;2023-09-18T02:34:01;24.70;99.90
16955;DHT22;8594;52.052;8.354;2023-09-18T02:36:28;24.70;99.90
16955;DHT22;8594;52.052;8.354;2023-09-18T02:38:55;24.60;99.90
16955;DHT22;8594;52.052;8.354;2023-09-18T02:41:22;24.50;99.90
16955;DHT22;8594;52.052;8.354;2023-09-18T02:43:49;24.30;99.90
16955;DHT22;8594;52.052;8.354;2023-09-18T02:46:16;24.20;99.90
16955;DHT22;8594;52.052;8.354;2023-09-18T02:48:43;24.20;99.90
16955;DHT22;8594;52.052;8.354;2023-09-18T02:51:11;24.30;99.90
16955;DHT22;8594;52.052;8.354;2023-09-18T02:53:38;24.40;99.90
16955;DHT22;8594;52.052;8.354;2023-09-18T02:56:04;24.30;99.90
16955;DHT22;8594;52.052;8.354;2023-09-18T02:58:31;24.30;99.90
16955;DHT22;8594;52.052;8.354;2023-09-18T03:00:58;24.30;99.90
16955;DHT22;8594;52.052;8.354;2023-09-18T03:03:25;24.20;99.90
16955;DHT22;8594;52.052;8.354;2023-09-18T03:05:52;24.10;99.90
16955;DHT22;8594;52.052;8.354;2023-09-18T03:08:21;24.10;99.90
16955;DHT22;8594;52.052;8.354;2023-09-18T03:10:47;24.20;99.90
16955;DHT22;8594;52.052;8.354;2023-09-18T03:13:15;24.20;99.90
16955;DHT22;8594;52.052;8.354;2023-09-18T03:15:45;24.20;99.90
16955;DHT22;8594;52.052;8.354;2023-09-18T03:18:13;24.10;99.90
16955;DHT22;8594;52.052;8.354;2023-09-18T03:20:40;24.10;99.90
16955;DHT22;8594;52.052;8.354;2023-09-18T03:23:07;24.20;99.90
16955;DHT22;8594;52.052;8.354;2023-09-18T03:25:35;24.20;99.90
16955;DHT22;8594;52.052;8.354;2023-09-18T03:28:03;24.20;99.90
16955;DHT22;8594;52.052;8.354;2023-09-18T03:30:30;24.10;99.90
16955;DHT22;8594;52.052;8.354;2023-09-18T03:32:57;23.90;99.90
16955;DHT22;8594;52.052;8.354;2023-09-18T03:35:24;24.00;99.90
16955;DHT22;8594;52.052;8.354;2023-09-18T03:37:52;23.90;99.90
16955;DHT22;8594;52.052;8.354;2023-09-18T03:40:20;24.10;99.90
16955;DHT22;8594;52.052;8.354;2023-09-18T03:42:49;24.00;99.90
16955;DHT22;8594;52.052;8.354;2023-09-18T03:45:16;24.00;99.90
16955;DHT22;8594;52.052;8.354;2023-09-18T03:47:44;24.10;99.90
16955;DHT22;8594;52.052;8.354;2023-09-18T03:50:11;23.90;99.90
16955;DHT22;8594;52.052;8.354;2023-09-18T03:52:39;24.00;99.90
16955;DHT22;8594;52.052;8.354;2023-09-18T03:55:07;23.90;99.90
16955;DHT22;8594;52.052;8.354;2023-09-18T03:57:34;23.80;99.90
16955;DHT22;8594;52.052;8.354;2023-09-18T04:00:04;23.70;99.90
16955;DHT22;8594;52.052;8.354;2023-09-18T04:02:33;23.60;99.90
16955;DHT22;8594;52.052;8.354;2023-09-18T04:05:00;23.90;99.90
16955;DHT22;8594;52.052;8.354;2023-09-18T04:07:28;23.70;99.90
16955;DHT22;8594;52.052;8.354;2023-09-18T04:09:55;23.70;99.90
16955;DHT22;8594;52.052;8.354;2023-09-18T04:12:22;23.70;99.90
16955;DHT22;8594;52.052;8.354;2023-09-18T04:14:49;23.60;99.90
16955;DHT22;8594;52.052;8.354;2023-09-18T04:17:17;23.60;99.90
16955;DHT22;8594;52.052;8.354;2023-09-18T04:19:46;23.50;99.90
16955;DHT22;8594;52.052;8.354;2023-09-18T04:22:13;23.40;99.90
16955;DHT22;8594;52.052;8.354;2023-09-18T04:24:40;23.50;99.90
16955;DHT22;8594;52.052;8.354;2023-09-18T04:27:07;23.60;99.90
16955;DHT22;8594;52.052;8.354;2023-09-18T04:29:34;23.50;99.90
16955;DHT22;8594;52.052;8.354;2023-09-18T04:32:01;23.40;99.90
16955;DHT22;8594;52.052;8.354;2023-09-18T04:34:30;23.40;99.90
16955;DHT22;8594;52.052;8.354;2023-09-18T04:36:57;23.50;99.90
16955;DHT22;8594;52.052;8.354;2023-09-18T04:39:24;23.60;99.90
16955;DHT22;8594;52.052;8.354;2023-09-18T04:41:51;23.60;99.90
16955;DHT22;8594;52.052;8.354;2023-09-18T04:44:18;23.50;99.90
16955;DHT22;8594;52.052;8.354;2023-09-18T04:46:45;23.30;99.90
16955;DHT22;8594;52.052;8.354;2023-09-18T04:49:12;23.50;99.90
16955;DHT22;8594;52.052;8.354;2023-09-18T04:51:41;23.50;99.90
16955;DHT22;8594;52.052;8.354;2023-09-18T04:54:09;23.60;99.90
16955;DHT22;8594;52.052;8.354;2023-09-18T04:56:36;23.60;99.90
16955;DHT22;8594;52.052;8.354;2023-09-18T04:59:03;23.60;99.90
16955;DHT22;8594;52.052;8.354;2023-09-18T05:01:30;23.50;99.90
16955;DHT22;8594;52.052;8.354;2023-09-18T05:03:57;23.30;99.90
16955;DHT22;8594;52.052;8.354;2023-09-18T05:06:24;23.30;99.90
16955;DHT22;8594;52.052;8.354;2023-09-18T05:08:52;23.50;99.90
16955;DHT22;8594;52.052;8.354;2023-09-18T05:11:19;23.40;99.90
16955;DHT22;8594;52.052;8.354;2023-09-18T05:13:47;23.40;99.90
16955;DHT22;8594;52.052;8.354;2023-09-18T05:16:16;23.60;99.90
16955;DHT22;8594;52.052;8.354;2023-09-18T05:18:43;23.30;99.90
16955;DHT22;8594;52.052;8.354;2023-09-18T05:21:10;23.20;99.90
16955;DHT22;8594;52.052;8.354;2023-09-18T05:23:39;23.40;99.90
16955;DHT22;8594;52.052;8.354;2023-09-18T05:26:07;23.40;99.90
16955;DHT22;8594;52.052;8.354;2023-09-18T05:28:34;23.40;99.90
16955;DHT22;8594;52.052;8.354;2023-09-18T05:31:01;23.30;99.90
16955;DHT22;8594;52.052;8.354;2023-09-18T05:33:29;23.40;99.90
16955;DHT22;8594;52.052;8.354;2023-09-18T05:35:56;23.50;99.90
16955;DHT22;8594;52.052;8.354;2023-09-18T05:38:23;23.30;99.90
16955;DHT22;8594;52.052;8.354;2023-09-18T05:40:50;23.40;99.90
16955;DHT22;8594;52.052;8.354;2023-09-18T05:43:18;23.30;99.90
16955;DHT22;8594;52.052;8.354;2023-09-18T05:45:45;23.20;99.90
16955;DHT22;8594;52.052;8.354;2023-09-18T05:48:12;23.20;99.90
16955;DHT22;8594;52.052;8.354;2023-09-18T05:50:39;23.30;99.90
16955;DHT22;8594;52.052;8.354;2023-09-18T05:53:07;23.10;99.90
16955;DHT22;8594;52.052;8.354;2023-09-18T05:55:34;23.10;99.90
16955;DHT22;8594;52.052;8.354;2023-09-18T05:58:02;23.20;99.90
16955;DHT22;8594;52.052;8.354;2023-09-18T06:00:31;23.20;99.90
16955;DHT22;8594;52.052;8.354;2023-09-18T06:02:58;23.30;99.90
16955;DHT22;8594;52.052;8.354;2023-09-18T06:05:25;23.40;99.90
16955;DHT22;8594;52.052;8.354;2023-09-18T06:07:52;23.30;99.90
16955;DHT22;8594;52.052;8.354;2023-09-18T06:10:19;23.30;99.90
16955;DHT22;8594;52.052;8.354;2023-09-18T06:12:46;23.20;99.90
16955;DHT22;8594;52.052;8.354;2023-09-18T06:15:13;23.00;99.90
16955;DHT22;8594;52.052;8.354;2023-09-18T06:17:43;23.20;99.90
16955;DHT22;8594;52.052;8.354;2023-09-18T06:20:11;23.10;99.90
16955;DHT22;8594;52.052;8.354;2023-09-18T06:22:40;23.00;99.90
16955;DHT22;8594;52.052;8.354;2023-09-18T06:25:08;23.00;99.90
16955;DHT22;8594;52.052;8.354;2023-09-18T06:27:36;23.00;99.90
16955;DHT22;8594;52.052;8.354;2023-09-18T06:30:04;23.10;99.90
16955;DHT22;8594;52.052;8.354;2023-09-18T06:32:32;23.00;99.90
16955;DHT22;8594;52.052;8.354;2023-09-18T06:35:01;22.90;99.90
16955;DHT22;8594;52.052;8.354;2023-09-18T06:37:28;23.00;99.90
16955;DHT22;8594;52.052;8.354;2023-09-18T06:39:55;23.10;99.90
16955;DHT22;8594;52.052;8.354;2023-09-18T06:42:23;23.00;99.90
16955;DHT22;8594;52.052;8.354;2023-09-18T06:44:50;23.20;99.90
16955;DHT22;8594;52.052;8.354;2023-09-18T06:47:16;23.10;99.90
16955;DHT22;8594;52.052;8.354;2023-09-18T06:49:43;23.00;99.90
16955;DHT22;8594;52.052;8.354;2023-09-18T06:52:11;23.00;99.90
16955;DHT22;8594;52.052;8.354;2023-09-18T06:54:39;23.30;99.90
16955;DHT22;8594;52.052;8.354;2023-09-18T06:57:06;23.40;99.90
16955;DHT22;8594;52.052;8.354;2023-09-18T06:59:33;23.40;99.90
16955;DHT22;8594;52.052;8.354;2023-09-18T07:02:00;23.50;99.90
16955;DHT22;8594;52.052;8.354;2023-09-18T07:04:27;23.50;99.90
16955;DHT22;8594;52.052;8.354;2023-09-18T07:06:54;23.30;99.90
16955;DHT22;8594;52.052;8.354;2023-09-18T07:09:23;23.30;99.90
16955;DHT22;8594;52.052;8.354;2023-09-18T07:11:51;23.20;99.90
16955;DHT22;8594;52.052;8.354;2023-09-18T07:14:18;23.10;99.90
16955;DHT22;8594;52.052;8.354;2023-09-18T07:16:45;23.00;99.90
16955;DHT22;8594;52.052;8.354;2023-09-18T07:19:12;23.00;99.90
16955;DHT22;8594;52.052;8.354;2023-09-18T07:21:42;23.10;99.90
16955;DHT22;8594;52.052;8.354;2023-09-18T07:24:10;23.20;99.90
16955;DHT22;8594;52.052;8.354;2023-09-18T07:26:44;23.20;99.90
16955;DHT22;8594;52.052;8.354;2023-09-18T07:29:12;23.20;99.90
16955;DHT22;8594;52.052;8.354;2023-09-18T07:31:40;23.00;99.90
16955;DHT22;8594;52.052;8.354;2023-09-18T07:34:08;23.10;99.90
16955;DHT22;8594;52.052;8.354;2023-09-18T07:36:35;23.10;99.90
16955;DHT22;8594;52.052;8.354;2023-09-18T07:39:02;23.10;99.90
16955;DHT22;8594;52.052;8.354;2023-09-18T07:41:29;23.20;99.90
16955;DHT22;8594;52.052;8.354;2023-09-18T07:43:58;23.20;99.90
16955;DHT22;8594;52.052;8.354;2023-09-18T07:46:25;23.20;99.90
16955;DHT22;8594;52.052;8.354;2023-09-18T07:48:52;23.30;99.90
16955;DHT22;8594;52.052;8.354;2023-09-18T07:51:19;23.30;99.90
16955;DHT22;8594;52.052;8.354;2023-09-18T07:53:46;23.60;99.90
16955;DHT22;8594;52.052;8.354;2023-09-18T07:56:13;23.60;99.90
16955;DHT22;8594;52.052;8.354;2023-09-18T07:58:40;23.80;99.90
16955;DHT22;8594;52.052;8.354;2023-09-18T08:01:08;23.60;99.90
16955;DHT22;8594;52.052;8.354;2023-09-18T08:03:35;23.70;99.90
16955;DHT22;8594;52.052;8.354;2023-09-18T08:06:02;23.70;99.90
16955;DHT22;8594;52.052;8.354;2023-09-18T08:08:31;23.60;99.90
16955;DHT22;8594;52.052;8.354;2023-09-18T08:11:00;23.60;99.90
16955;DHT22;8594;52.052;8.354;2023-09-18T08:13:34;23.60;99.90
16955;DHT22;8594;52.052;8.354;2023-09-18T08:16:01;23.70;99.90
16955;DHT22;8594;52.052;8.354;2023-09-18T08:18:30;23.50;99.90
16955;DHT22;8594;52.052;8.354;2023-09-18T08:20:57;23.30;99.90
16955;DHT22;8594;52.052;8.354;2023-09-18T08:23:25;23.40;99.90
16955;DHT22;8594;52.052;8.354;2023-09-18T08:25:53;23.10;99.90
16955;DHT22;8594;52.052;8.354;2023-09-18T08:28:21;23.20;99.90
16955;DHT22;8594;52.052;8.354;2023-09-18T08:30:48;23.30;99.90
16955;DHT22;8594;52.052;8.354;2023-09-18T08:33:15;23.50;99.90
16955;DHT22;8594;52.052;8.354;2023-09-18T08:35:44;23.40;99.90
16955;DHT22;8594;52.052;8.354;2023-09-18T08:38:12;23.40;99.90
16955;DHT22;8594;52.052;8.354;2023-09-18T08:40:40;23.20;99.90
16955;DHT22;8594;52.052;8.354;2023-09-18T08:43:10;23.30;99.90
16955;DHT22;8594;52.052;8.354;2023-09-18T08:45:43;23.20;99.90
16955;DHT22;8594;52.052;8.354;2023-09-18T08:48:13;23.20;99.90
16955;DHT22;8594;52.052;8.354;2023-09-18T08:50:40;23.10;99.90
16955;DHT22;8594;52.052;8.354;2023-09-18T08:53:10;23.00;99.90
16955;DHT22;8594;52.052;8.354;2023-09-18T08:55:37;23.00;99.90
16955;DHT22;8594;52.052;8.354;2023-09-18T08:58:06;23.00;99.90
16955;DHT22;8594;52.052;8.354;2023-09-18T09:00:33;23.10;99.90
16955;DHT22;8594;52.052;8.354;2023-09-18T09:03:03;23.00;99.90
16955;DHT22;8594;52.052;8.354;2023-09-18T09:05:31;23.00;99.90
16955;DHT22;8594;52.052;8.354;2023-09-18T09:07:58;23.20;99.90
16955;DHT22;8594;52.052;8.354;2023-09-18T09:10:27;23.30;99.90
16955;DHT22;8594;52.052;8.354;2023-09-18T09:12:56;23.30;99.90
16955;DHT22;8594;52.052;8.354;2023-09-18T09:15:26;23.30;99.90
16955;DHT22;8594;52.052;8.354;2023-09-18T09:18:03;23.40;99.90
16955;DHT22;8594;52.052;8.354;2023-09-18T09:20:31;23.20;99.90
16955;DHT22;8594;52.052;8.354;2023-09-18T09:23:03;23.40;99.90
16955;DHT22;8594;52.052;8.354;2023-09-18T09:25:33;23.40;99.90
16955;DHT22;8594;52.052;8.354;2023-09-18T09:28:03;23.40;99.90
16955;DHT22;8594;52.052;8.354;2023-09-18T09:30:32;23.40;99.90
16955;DHT22;8594;52.052;8.354;2023-09-18T09:33:04;23.20;99.90
16955;DHT22;8594;52.052;8.354;2023-09-18T09:35:34;23.40;99.90
16955;DHT22;8594;52.052;8.354;2023-09-18T09:38:08;23.20;99.90
16955;DHT22;8594;52.052;8.354;2023-09-18T09:40:39;23.30;99.90
16955;DHT22;8594;52.052;8.354;2023-09-18T09:43:08;23.50;99.90
16955;DHT22;8594;52.052;8.354;2023-09-18T09:45:36;23.60;99.90
16955;DHT22;8594;52.052;8.354;2023-09-18T09:48:04;23.50;99.90
16955;DHT22;8594;52.052;8.354;2023-09-18T09:50:32;23.40;99.90
16955;DHT22;8594;52.052;8.354;2023-09-18T09:53:00;23.50;99.90
16955;DHT22;8594;52.052;8.354;2023-09-18T09:55:28;23.40;99.90
16955;DHT22;8594;52.052;8.354;2023-09-18T09:58:00;23.40;99.90
16955;DHT22;8594;52.052;8.354;2023-09-18T10:00:30;23.40;99.90
16955;DHT22;8594;52.052;8.354;2023-09-18T10:03:04;23.30;99.90
16955;DHT22;8594;52.052;8.354;2023-09-18T10:05:32;23.30;99.90
16955;DHT22;8594;52.052;8.354;2023-09-18T10:08:04;23.50;99.90
16955;DHT22;8594;52.052;8.354;2023-09-18T10:10:36;23.40;99.90
16955;DHT22;8594;52.052;8.354;2023-09-18T10:13:13;23.30;99.90
16955;DHT22;8594;52.052;8.354;2023-09-18T10:15:44;23.30;99.90
16955;DHT22;8594;52.052;8.354;2023-09-18T10:18:17;23.40;99.90
16955;DHT22;8594;52.052;8.354;2023-09-18T10:20:58;23.50;99.90
16955;DHT22;8594;52.052;8.354;2023-09-18T10:23:42;23.50;99.90
16955;DHT22;8594;52.052;8.354;2023-09-18T10:26:22;23.60;99.90
16955;DHT22;8594;52.052;8.354;2023-09-18T10:28:53;23.70;99.90
16955;DHT22;8594;52.052;8.354;2023-09-18T10:31:24;23.60;99.90
16955;DHT22;8594;52.052;8.354;2023-09-18T10:33:53;23.60;99.90
16955;DHT22;8594;52.052;8.354;2023-09-18T10:36:22;23.60;99.90
16955;DHT22;8594;52.052;8.354;2023-09-18T10:38:51;23.70;99.90
16955;DHT22;8594;52.052;8.354;2023-09-18T10:41:22;23.70;99.90
16955;DHT22;8594;52.052;8.354;2023-09-18T10:43:53;23.60;99.90
16955;DHT22;8594;52.052;8.354;2023-09-18T10:46:23;23.70;99.90
16955;DHT22;8594;52.052;8.354;2023-09-18T10:48:51;23.60;99.90
16955;DHT22;8594;52.052;8.354;2023-09-18T10:51:20;23.70;99.90
16955;DHT22;8594;52.052;8.354;2023-09-18T10:53:48;23.70;99.90
16955;DHT22;8594;52.052;8.354;2023-09-18T10:56:19;23.70;99.90
16955;DHT22;8594;52.052;8.354;2023-09-18T10:58:48;23.50;99.90
16955;DHT22;8594;52.052;8.354;2023-09-18T11:01:24;23.40;99.90
16955;DHT22;8594;52.052;8.354;2023-09-18T11:03:52;23.40;99.90
16955;DHT22;8594;52.052;8.354;2023-09-18T11:06:25;23.60;99.90
16955;DHT22;8594;52.052;8.354;2023-09-18T11:08:59;23.60;99.90
16955;DHT22;8594;52.052;8.354;2023-09-18T11:11:30;23.60;99.90
16955;DHT22;8594;52.052;8.354;2023-09-18T11:14:02;23.60;99.90
16955;DHT22;8594;52.052;8.354;2023-09-18T11:16:36;23.60;99.90
16955;DHT22;8594;52.052;8.354;2023-09-18T11:19:09;23.50;99.90
16955;DHT22;8594;52.052;8.354;2023-09-18T11:21:42;23.40;99.90
16955;DHT22;8594;52.052;8.354;2023-09-18T11:24:16;23.50;99.90
16955;DHT22;8594;52.052;8.354;2023-09-18T11:26:46;23.60;99.90
16955;DHT22;8594;52.052;8.354;2023-09-18T11:29:22;23.90;99.90
16955;DHT22;8594;52.052;8.354;2023-09-18T11:31:53;24.10;99.90
16955;DHT22;8594;52.052;8.354;2023-09-18T11:34:22;24.40;99.90
16955;DHT22;8594;52.052;8.354;2023-09-18T11:36:52;24.50;99.90
16955;DHT22;8594;52.052;8.354;2023-09-18T11:39:35;24.50;99.90
16955;DHT22;8594;52.052;8.354;2023-09-18T11:42:10;25.00;99.90
16955;DHT22;8594;52.052;8.354;2023-09-18T11:44:40;25.10;99.90
16955;DHT22;8594;52.052;8.354;2023-09-18T11:47:09;25.40;99.90
16955;DHT22;8594;52.052;8.354;2023-09-18T11:49:47;25.50;99.90
16955;DHT22;8594;52.052;8.354;2023-09-18T11:52:20;25.60;99.90
16955;DHT22;8594;52.052;8.354;2023-09-18T11:54:48;25.70;99.90
16955;DHT22;8594;52.052;8.354;2023-09-18T11:57:18;26.10;99.90
16955;DHT22;8594;52.052;8.354;2023-09-18T11:59:47;26.10;99.90
16955;DHT22;8594;52.052;8.354;2023-09-18T12:02:25;26.00;99.90
16955;DHT22;8594;52.052;8.354;2023-09-18T12:04:53;26.00;99.90
16955;DHT22;8594;52.052;8.354;2023-09-18T12:07:20;26.10;99.90
16955;DHT22;8594;52.052;8.354;2023-09-18T12:09:48;25.90;99.90
16955;DHT22;8594;52.052;8.354;2023-09-18T12:12:16;25.50;99.90
16955;DHT22;8594;52.052;8.354;2023-09-18T12:14:43;25.60;99.90
16955;DHT22;8594;52.052;8.354;2023-09-18T12:17:15;25.40;99.90
16955;DHT22;8594;52.052;8.354;2023-09-18T12:19:53;25.40;99.90
16955;DHT22;8594;52.052;8.354;2023-09-18T12:22:24;25.30;99.90
16955;DHT22;8594;52.052;8.354;2023-09-18T12:24:52;25.20;99.90
16955;DHT22;8594;52.052;8.354;2023-09-18T12:27:20;25.20;99.90
16955;DHT22;8594;52.052;8.354;2023-09-18T12:29:47;25.10;99.90
16955;DHT22;8594;52.052;8.354;2023-09-18T12:32:15;25.00;99.90
16955;DHT22;8594;52.052;8.354;2023-09-18T12:34:43;25.00;99.90
16955;DHT22;8594;52.052;8.354;2023-09-18T12:37:12;25.00;99.90
16955;DHT22;8594;52.052;8.354;2023-09-18T12:39:39;24.90;99.90
16955;DHT22;8594;52.052;8.354;2023-09-18T12:42:06;24.80;99.90
16955;DHT22;8594;52.052;8.354;2023-09-18T12:44:33;24.80;99.90
16955;DHT22;8594;52.052;8.354;2023-09-18T12:47:01;24.90;99.90
16955;DHT22;8594;52.052;8.354;2023-09-18T12:49:31;25.00;99.90
16955;DHT22;8594;52.052;8.354;2023-09-18T12:52:00;25.10;99.90
16955;DHT22;8594;52.052;8.354;2023-09-18T12:54:39;25.30;99.90
16955;DHT22;8594;52.052;8.354;2023-09-18T12:57:07;25.50;99.90
16955;DHT22;8594;52.052;8.354;2023-09-18T12:59:36;25.80;99.90
16955;DHT22;8594;52.052;8.354;2023-09-18T13:02:04;26.10;99.90
16955;DHT22;8594;52.052;8.354;2023-09-18T13:04:34;26.40;99.90
16955;DHT22;8594;52.052;8.354;2023-09-18T13:07:06;26.50;99.90
16955;DHT22;8594;52.052;8.354;2023-09-18T13:09:35;26.30;99.90
16955;DHT22;8594;52.052;8.354;2023-09-18T13:12:03;26.50;99.90
16955;DHT22;8594;52.052;8.354;2023-09-18T13:17:37;26.80;99.90
16955;DHT22;8594;52.052;8.354;2023-09-18T13:20:14;26.70;99.90
16955;DHT22;8594;52.052;8.354;2023-09-18T13:22:45;26.40;99.90
16955;DHT22;8594;52.052;8.354;2023-09-18T13:25:19;26.20;99.90
16955;DHT22;8594;52.052;8.354;2023-09-18T13:27:47;26.10;99.90
16955;DHT22;8594;52.052;8.354;2023-09-18T13:30:14;26.20;99.90
16955;DHT22;8594;52.052;8.354;2023-09-18T13:32:43;26.00;99.90
16955;DHT22;8594;52.052;8.354;2023-09-18T13:35:10;26.10;99.90
16955;DHT22;8594;52.052;8.354;2023-09-18T13:37:41;26.00;99.90
16955;DHT22;8594;52.052;8.354;2023-09-18T13:40:10;25.90;99.90
16955;DHT22;8594;52.052;8.354;2023-09-18T13:42:38;25.70;99.90
16955;DHT22;8594;52.052;8.354;2023-09-18T13:45:06;25.90;99.90
16955;DHT22;8594;52.052;8.354;2023-09-18T13:47:34;26.10;99.90
16955;DHT22;8594;52.052;8.354;2023-09-18T13:50:02;26.20;99.90
16955;DHT22;8594;52.052;8.354;2023-09-18T13:52:32;26.30;99.90
16955;DHT22;8594;52.052;8.354;2023-09-18T13:55:03;26.20;99.90
16955;DHT22;8594;52.052;8.354;2023-09-18T13:57:31;26.00;99.90
16955;DHT22;8594;52.052;8.354;2023-09-18T14:00:00;25.60;99.90
16955;DHT22;8594;52.052;8.354;2023-09-18T14:02:30;25.50;99.90
16955;DHT22;8594;52.052;8.354;2023-09-18T14:04:57;25.50;99.90
16955;DHT22;8594;52.052;8.354;2023-09-18T14:07:24;25.40;99.90
16955;DHT22;8594;52.052;8.354;2023-09-18T14:09:51;25.30;99.90
16955;DHT22;8594;52.052;8.354;2023-09-18T14:12:19;25.10;99.90
16955;DHT22;8594;52.052;8.354;2023-09-18T14:14:46;24.80;99.90
16955;DHT22;8594;52.052;8.354;2023-09-18T14:17:13;24.80;99.90
16955;DHT22;8594;52.052;8.354;2023-09-18T14:19:42;24.70;99.90
16955;DHT22;8594;52.052;8.354;2023-09-18T14:22:09;24.70;99.90
16955;DHT22;8594;52.052;8.354;2023-09-18T14:24:36;24.70;99.90
16955;DHT22;8594;52.052;8.354;2023-09-18T14:27:03;24.90;99.90
16955;DHT22;8594;52.052;8.354;2023-09-18T14:29:33;24.80;99.90
16955;DHT22;8594;52.052;8.354;2023-09-18T14:32:00;24.80;99.90
16955;DHT22;8594;52.052;8.354;2023-09-18T14:34:28;25.00;99.90
16955;DHT22;8594;52.052;8.354;2023-09-18T14:36:58;25.10;99.90
16955;DHT22;8594;52.052;8.354;2023-09-18T14:39:24;24.90;99.90
16955;DHT22;8594;52.052;8.354;2023-09-18T14:41:51;24.90;99.90
16955;DHT22;8594;52.052;8.354;2023-09-18T14:44:18;25.10;99.90
16955;DHT22;8594;52.052;8.354;2023-09-18T14:46:46;24.80;99.90
16955;DHT22;8594;52.052;8.354;2023-09-18T14:49:14;24.60;99.90
16955;DHT22;8594;52.052;8.354;2023-09-18T14:51:41;24.80;99.90
16955;DHT22;8594;52.052;8.354;2023-09-18T14:54:09;24.90;99.90
16955;DHT22;8594;52.052;8.354;2023-09-18T14:56:36;24.80;99.90
16955;DHT22;8594;52.052;8.354;2023-09-18T14:59:06;24.60;99.90
16955;DHT22;8594;52.052;8.354;2023-09-18T15:01:34;24.80;99.90
16955;DHT22;8594;52.052;8.354;2023-09-18T15:04:02;24.90;99.90
16955;DHT22;8594;52.052;8.354;2023-09-18T15:06:29;25.00;99.90
16955;DHT22;8594;52.052;8.354;2023-09-18T15:08:56;24.80;99.90
16955;DHT22;8594;52.052;8.354;2023-09-18T15:11:23;24.70;99.90
16955;DHT22;8594;52.052;8.354;2023-09-18T15:13:50;24.60;99.90
16955;DHT22;8594;52.052;8.354;2023-09-18T15:16:17;24.40;99.90
16955;DHT22;8594;52.052;8.354;2023-09-18T15:18:44;24.40;99.90
16955;DHT22;8594;52.052;8.354;2023-09-18T15:21:12;24.40;99.90
16955;DHT22;8594;52.052;8.354;2023-09-18T15:23:39;24.20;99.90
16955;DHT22;8594;52.052;8.354;2023-09-18T15:26:06;24.30;99.90
16955;DHT22;8594;52.052;8.354;2023-09-18T15:28:33;24.20;99.90
16955;DHT22;8594;52.052;8.354;2023-09-18T15:31:01;24.30;99.90
16955;DHT22;8594;52.052;8.354;2023-09-18T15:33:28;24.30;99.90
16955;DHT22;8594;52.052;8.354;2023-09-18T15:35:54;24.40;99.90
16955;DHT22;8594;52.052;8.354;2023-09-18T15:38:23;24.60;99.90
16955;DHT22;8594;52.052;8.354;2023-09-18T15:40:50;24.40;99.90
16955;DHT22;8594;52.052;8.354;2023-09-18T15:43:17;24.40;99.90
16955;DHT22;8594;52.052;8.354;2023-09-18T15:45:44;24.40;99.90
16955;DHT22;8594;52.052;8.354;2023-09-18T15:48:12;24.40;99.90
16955;DHT22;8594;52.052;8.354;2023-09-18T15:50:39;24.50;99.90
16955;DHT22;8594;52.052;8.354;2023-09-18T15:53:07;24.40;99.90
16955;DHT22;8594;52.052;8.354;2023-09-18T15:55:35;24.50;99.90